KMSP

Minneapolis-St Paul International/Wold-Chamberlain Airport

Minneapolis, Minnesota, USA
METAR KMSP 170153Z 06005KT 10SM OVC020 M03/M07 A3008 RMK AO2 SLP198 T10331067
Observed Flight Rules
Dec-17 @ 01:53 UTC (25 minutes ago) Marginal Visual Flight Rules
Wind Visibility Clouds
60° at 5 knots 10 miles
  • Overcast at 2,000' AGL
Temperatures Readings
Current -3°C / 27°F
Dewpoint -7°C / 19°F
Humidity 74%
Altimeter 30.08" Hg
Pressure 1019.8 hPa
Elevation 265
METAR KMSP 170153Z 06005KT 10SM OVC020 M03/M07 A3008 RMK AO2 SLP198 T10331067
Observed Flight Rules
Dec-17 @ 01:53 UTC
(25 minutes ago)
MVFR
Wind Visibility
60° at 5 knots 10 miles
Clouds
  • Overcast at 2,000' AGL
Temperature Dewpoint
-3°C / 27°F -7°C / 19°F
Humidity Altimeter Pressure
74% 30.08" Hg 1019.8 hPa